createdAt,value
2018-03-08T00:00:52.241Z,90.90
2018-03-08T00:01:52.222Z,90.90
2018-03-08T00:02:52.197Z,91.38
2018-03-08T00:03:52.200Z,91.28
2018-03-08T00:04:52.158Z,91.56
2018-03-08T00:05:52.142Z,91.28
2018-03-08T00:06:52.120Z,91.00
2018-03-08T00:07:52.114Z,91.00
2018-03-08T00:08:52.092Z,91.38
2018-03-08T00:09:52.057Z,91.94
2018-03-08T00:10:52.047Z,91.94
2018-03-08T00:11:52.018Z,91.85
2018-03-08T00:12:52.012Z,92.52
2018-03-08T00:13:51.980Z,92.52
2018-03-08T00:14:51.965Z,92.61
2018-03-08T00:15:51.942Z,92.23
2018-03-08T00:16:51.921Z,92.61
2018-03-08T00:17:51.902Z,92.90
2018-03-08T00:18:51.890Z,93.08
2018-03-08T00:19:51.864Z,92.90
2018-03-08T00:20:51.839Z,92.52
2018-03-08T00:21:51.829Z,92.52
2018-03-08T00:22:51.811Z,92.52
2018-03-08T00:23:51.784Z,92.71
2018-03-08T00:24:51.762Z,93.23
2018-03-08T00:25:51.756Z,93.08
2018-03-08T00:26:51.718Z,92.85
2018-03-08T00:27:51.700Z,93.84
2018-03-08T00:28:51.680Z,93.84
2018-03-08T00:29:51.661Z,93.75
2018-03-08T00:30:51.638Z,93.08
2018-03-08T00:31:51.623Z,92.99
2018-03-08T00:32:51.600Z,92.80
2018-03-08T00:33:51.578Z,93.27
2018-03-08T00:34:51.560Z,93.27
2018-03-08T00:35:51.539Z,92.90
2018-03-08T00:36:51.517Z,92.99
2018-03-08T00:37:51.508Z,93.37
2018-03-08T00:38:51.504Z,93.27
2018-03-08T00:39:51.498Z,92.90
2018-03-08T00:40:51.434Z,92.61
2018-03-08T00:41:51.414Z,92.42
2018-03-08T00:42:51.421Z,92.99
2018-03-08T00:43:51.376Z,93.37
2018-03-08T00:44:51.364Z,93.56
2018-03-08T00:45:51.341Z,93.65
2018-03-08T00:46:51.324Z,93.56
2018-03-08T00:47:51.290Z,93.08
2018-03-08T00:48:51.276Z,93.18
2018-03-08T00:49:51.261Z,93.08
2018-03-08T00:50:51.238Z,93.56
2018-03-08T00:51:51.216Z,93.37
2018-03-08T00:52:51.197Z,93.80
2018-03-08T00:53:51.188Z,93.61
2018-03-08T00:54:51.158Z,93.70
2018-03-08T00:55:51.139Z,93.70
2018-03-08T00:56:51.122Z,94.08
2018-03-08T00:57:51.100Z,93.80
2018-03-08T00:58:51.077Z,93.89
2018-03-08T00:59:51.072Z,93.99
2018-03-08T01:00:51.042Z,93.61
2018-03-08T01:01:51.030Z,94.27
2018-03-08T01:02:51.030Z,93.99
2018-03-08T01:03:50.971Z,94.18
2018-03-08T01:04:50.960Z,94.18
2018-03-08T01:05:50.931Z,94.08
2018-03-08T01:06:50.910Z,94.27
2018-03-08T01:07:50.913Z,93.99
2018-03-08T01:08:50.893Z,94.46
2018-03-08T01:09:50.848Z,94.37
2018-03-08T01:10:50.835Z,94.56
2018-03-08T01:11:50.817Z,94.56
2018-03-08T01:12:50.839Z,94.93
2018-03-08T01:13:50.775Z,94.74
2018-03-08T01:14:50.746Z,95.12
2018-03-08T01:15:50.740Z,94.65
2018-03-08T01:16:50.715Z,94.46
2018-03-08T01:17:50.689Z,94.84
2018-03-08T01:18:50.708Z,94.65
2018-03-08T01:19:50.654Z,94.93
2018-03-08T01:20:50.629Z,95.03
2018-03-08T01:21:50.609Z,94.93
2018-03-08T01:22:50.597Z,94.93
2018-03-08T01:23:50.564Z,94.84
2018-03-08T01:24:50.552Z,94.27
2018-03-08T01:25:50.523Z,94.27
2018-03-08T01:26:50.504Z,94.18
2018-03-08T01:27:50.497Z,94.65
2018-03-08T01:28:50.473Z,94.27
2018-03-08T01:29:50.465Z,94.65
2018-03-08T01:30:50.427Z,94.65
2018-03-08T01:31:50.414Z,93.99
2018-03-08T01:32:50.408Z,94.65
2018-03-08T01:33:50.363Z,94.65
2018-03-08T01:34:50.347Z,93.99
2018-03-08T01:35:50.319Z,93.89
2018-03-08T01:36:50.296Z,94.08
2018-03-08T01:37:50.297Z,94.08
2018-03-08T01:38:50.265Z,94.18
2018-03-08T01:39:50.271Z,94.08
2018-03-08T01:40:50.219Z,94.27
2018-03-08T01:41:50.205Z,94.13
2018-03-08T01:42:50.175Z,94.32
2018-03-08T01:43:50.152Z,94.42
2018-03-08T01:44:50.140Z,94.98
2018-03-08T01:45:50.115Z,94.98
2018-03-08T01:46:50.099Z,95.36
2018-03-08T01:47:50.070Z,95.26
2018-03-08T01:48:50.069Z,94.60
2018-03-08T01:49:50.074Z,95.45
2018-03-08T01:50:50.019Z,94.98
2018-03-08T01:51:50.003Z,95.36
2018-03-08T01:52:49.977Z,95.36
2018-03-08T01:53:49.955Z,95.65
2018-03-08T01:54:49.930Z,94.98
2018-03-08T01:55:49.925Z,95.17
2018-03-08T01:56:49.950Z,95.26
2018-03-08T01:57:49.874Z,95.45
2018-03-08T01:58:49.845Z,95.55
2018-03-08T01:59:49.827Z,95.74
2018-03-08T02:00:49.820Z,95.26
2018-03-08T02:01:49.781Z,95.55
2018-03-08T02:02:49.784Z,95.17
2018-03-08T02:03:49.746Z,95.36
2018-03-08T02:04:49.722Z,95.36
2018-03-08T02:05:49.699Z,95.36
2018-03-08T02:06:49.695Z,94.42
2018-03-08T02:07:49.657Z,95.26
2018-03-08T02:08:49.638Z,95.26
2018-03-08T02:09:49.616Z,95.26
2018-03-08T02:10:49.602Z,94.98
2018-03-08T02:11:49.584Z,95.36
2018-03-08T02:12:49.606Z,95.45
2018-03-08T02:13:49.540Z,95.55
2018-03-08T02:14:49.525Z,95.55
2018-03-08T02:15:49.494Z,95.17
2018-03-08T02:16:49.508Z,95.65
2018-03-08T02:17:49.481Z,95.17
2018-03-08T02:18:49.432Z,95.45
2018-03-08T02:19:49.410Z,95.93
2018-03-08T02:20:49.413Z,95.65
2018-03-08T02:21:49.378Z,96.22
2018-03-08T02:22:49.359Z,95.55
2018-03-08T02:23:49.330Z,95.55
2018-03-08T02:24:49.306Z,95.93
2018-03-08T02:25:49.299Z,95.65
2018-03-08T02:26:49.277Z,95.84
2018-03-08T02:27:49.248Z,95.93
2018-03-08T02:28:49.243Z,95.65
2018-03-08T02:29:49.210Z,95.26
2018-03-08T02:30:49.186Z,95.84
2018-03-08T02:31:49.168Z,95.65
2018-03-08T02:32:49.144Z,95.36
2018-03-08T02:33:49.131Z,95.55
2018-03-08T02:34:49.103Z,95.65
2018-03-08T02:35:49.085Z,95.65
2018-03-08T02:36:49.080Z,95.74
2018-03-08T02:37:49.038Z,95.93
2018-03-08T02:38:49.019Z,96.12
2018-03-08T02:39:49.000Z,96.03
2018-03-08T02:40:48.973Z,95.65
2018-03-08T02:41:48.960Z,95.65
2018-03-08T02:42:48.944Z,94.98
2018-03-08T02:43:48.916Z,95.45
2018-03-08T02:44:48.900Z,95.55
2018-03-08T02:45:48.881Z,95.36
2018-03-08T02:46:48.848Z,95.65
2018-03-08T02:47:48.837Z,95.84
2018-03-08T02:48:48.810Z,95.65
2018-03-08T02:49:48.813Z,95.26
2018-03-08T02:50:48.778Z,95.55
2018-03-08T02:51:48.750Z,95.55
2018-03-08T02:52:49.451Z,95.55
2018-03-08T02:53:48.716Z,95.84
2018-03-08T02:54:48.691Z,95.26
2018-03-08T02:55:48.676Z,96.12
2018-03-08T02:56:48.644Z,95.26
2018-03-08T02:57:48.650Z,96.12
2018-03-08T02:58:48.599Z,96.12
2018-03-08T02:59:48.578Z,95.55
2018-03-08T03:00:48.593Z,96.41
2018-03-08T03:01:48.540Z,95.65
2018-03-08T03:02:48.520Z,95.65
2018-03-08T03:03:48.501Z,95.65
2018-03-08T03:04:48.475Z,95.74
2018-03-08T03:05:48.948Z,95.45
2018-03-08T03:06:48.458Z,95.74
2018-03-08T03:07:48.420Z,95.45
2018-03-08T03:08:48.391Z,96.22
2018-03-08T03:09:48.409Z,95.98
2018-03-08T03:10:48.385Z,95.98
2018-03-08T03:11:48.383Z,96.36
2018-03-08T03:12:48.318Z,95.98
2018-03-08T03:13:48.290Z,96.07
2018-03-08T03:14:48.264Z,96.64
2018-03-08T03:15:48.248Z,96.64
2018-03-08T03:16:48.226Z,95.69
2018-03-08T03:17:48.215Z,95.69
2018-03-08T03:18:48.187Z,95.93
2018-03-08T03:19:48.163Z,95.60
2018-03-08T03:20:48.158Z,95.98
2018-03-08T03:21:48.123Z,96.07
2018-03-08T03:22:48.105Z,96.07
2018-03-08T03:23:48.082Z,95.98
2018-03-08T03:24:48.063Z,96.26
2018-03-08T03:25:48.040Z,96.73
2018-03-08T03:26:48.029Z,96.45
2018-03-08T03:27:47.992Z,96.55
2018-03-08T03:28:47.969Z,96.83
2018-03-08T03:29:47.960Z,96.45
2018-03-08T03:30:47.947Z,96.64
2018-03-08T03:31:47.917Z,96.64
2018-03-08T03:32:47.890Z,95.69
2018-03-08T03:33:47.874Z,96.45
2018-03-08T03:34:47.853Z,95.88
2018-03-08T03:35:47.839Z,96.26
2018-03-08T03:36:47.817Z,96.45
2018-03-08T03:37:47.788Z,96.07
2018-03-08T03:38:47.769Z,96.17
2018-03-08T03:39:47.741Z,95.69
2018-03-08T03:40:47.725Z,95.69
2018-03-08T03:41:47.700Z,95.69
2018-03-08T03:42:47.677Z,95.79
2018-03-08T03:43:47.667Z,95.69
2018-03-08T03:44:47.641Z,95.88
2018-03-08T03:45:47.623Z,96.45
2018-03-08T03:46:47.604Z,96.45
2018-03-08T03:47:47.574Z,96.55
2018-03-08T03:48:47.555Z,96.64
2018-03-08T03:49:47.537Z,96.07
2018-03-08T03:50:47.543Z,96.55
2018-03-08T03:51:47.503Z,96.64
2018-03-08T03:52:47.485Z,96.26
2018-03-08T03:53:47.455Z,95.69
2018-03-08T03:54:47.426Z,95.98
2018-03-08T03:55:47.404Z,96.26
2018-03-08T03:56:47.391Z,95.88
2018-03-08T03:57:47.369Z,96.17
2018-03-08T03:58:47.352Z,95.98
2018-03-08T03:59:47.327Z,95.41
2018-03-08T04:00:47.309Z,95.60
2018-03-08T04:01:47.286Z,95.69
2018-03-08T04:02:47.274Z,95.69
2018-03-08T04:03:47.245Z,95.98
2018-03-08T04:04:47.242Z,95.79
2018-03-08T04:05:47.202Z,95.88
2018-03-08T04:06:47.174Z,96.26
2018-03-08T04:07:47.162Z,96.64
2018-03-08T04:08:47.136Z,96.55
2018-03-08T04:09:47.117Z,96.07
2018-03-08T04:10:47.094Z,97.02
2018-03-08T04:11:47.068Z,96.55
2018-03-08T04:12:47.050Z,96.92
2018-03-08T04:13:47.034Z,96.92
2018-03-08T04:14:47.004Z,96.36
2018-03-08T04:15:47.001Z,97.21
2018-03-08T04:16:46.972Z,96.92
2018-03-08T04:17:46.943Z,97.02
2018-03-08T04:18:46.927Z,97.21
2018-03-08T04:19:46.907Z,97.02
2018-03-08T04:20:46.888Z,97.11
2018-03-08T04:21:46.859Z,97.30
2018-03-08T04:22:46.843Z,97.21
2018-03-08T04:23:46.818Z,96.78
2018-03-08T04:24:46.798Z,96.69
2018-03-08T04:25:46.773Z,97.16
2018-03-08T04:26:46.762Z,97.73
2018-03-08T04:27:46.789Z,97.63
2018-03-08T04:28:46.711Z,97.25
2018-03-08T04:29:46.689Z,97.06
2018-03-08T04:30:46.673Z,96.78
2018-03-08T04:31:46.657Z,96.97
2018-03-08T04:32:46.629Z,97.63
2018-03-08T04:33:46.612Z,98.86
2018-03-08T04:34:46.599Z,99.99
2018-03-08T04:35:46.580Z,99.81
2018-03-08T04:36:46.543Z,99.99
2018-03-08T04:37:46.529Z,99.99
2018-03-08T04:38:46.504Z,99.99
2018-03-08T04:39:46.488Z,99.99
2018-03-08T04:40:46.475Z,99.99
2018-03-08T04:41:46.438Z,99.99
2018-03-08T04:42:46.418Z,99.99
2018-03-08T04:43:46.394Z,99.99
2018-03-08T04:44:46.379Z,99.99
2018-03-08T04:45:46.354Z,99.99
2018-03-08T04:46:46.340Z,99.99
2018-03-08T04:47:46.341Z,99.99
2018-03-08T04:48:46.288Z,99.99
2018-03-08T04:49:46.298Z,99.99
2018-03-08T04:50:46.250Z,99.99
2018-03-08T04:51:46.230Z,99.99
2018-03-08T04:52:46.205Z,99.99
2018-03-08T04:53:46.192Z,99.99
2018-03-08T04:54:46.170Z,99.99
2018-03-08T04:55:46.145Z,99.99
2018-03-08T04:56:46.127Z,99.99
2018-03-08T04:57:46.128Z,99.99
2018-03-08T04:58:46.079Z,99.99
2018-03-08T04:59:46.066Z,99.99
2018-03-08T05:00:46.043Z,99.99
2018-03-08T05:01:46.014Z,99.99
2018-03-08T05:02:46.002Z,99.99
2018-03-08T05:03:45.971Z,99.99
2018-03-08T05:04:45.951Z,99.99
2018-03-08T05:05:45.951Z,99.99
2018-03-08T05:06:45.919Z,99.99
2018-03-08T05:07:45.900Z,99.99
2018-03-08T05:08:45.887Z,99.99
2018-03-08T05:09:45.845Z,99.99
2018-03-08T05:10:45.829Z,99.99
2018-03-08T05:11:45.819Z,99.99
2018-03-08T05:12:45.804Z,99.99
2018-03-08T05:13:45.766Z,99.99
2018-03-08T05:14:45.746Z,99.99
2018-03-08T05:15:45.736Z,99.99
2018-03-08T05:16:45.698Z,99.99
2018-03-08T05:17:45.702Z,99.99
2018-03-08T05:18:45.661Z,99.99
2018-03-08T05:19:45.635Z,99.99
2018-03-08T05:20:45.616Z,99.99
2018-03-08T05:21:45.612Z,99.99
2018-03-08T05:22:45.574Z,99.99
2018-03-08T05:23:45.578Z,99.99
2018-03-08T05:24:45.532Z,99.99
2018-03-08T05:25:45.539Z,99.99
2018-03-08T05:26:45.501Z,99.99
2018-03-08T05:27:45.507Z,99.99
2018-03-08T05:28:45.469Z,99.99
2018-03-08T05:29:45.447Z,99.99
2018-03-08T05:30:45.414Z,99.99
2018-03-08T05:31:45.405Z,99.99
2018-03-08T05:32:45.363Z,99.99
2018-03-08T05:33:45.347Z,99.99
2018-03-08T05:34:45.338Z,99.99
2018-03-08T05:35:45.294Z,99.99
2018-03-08T05:36:45.294Z,99.99
2018-03-08T05:37:45.287Z,99.99
2018-03-08T05:38:45.239Z,99.99
2018-03-08T05:39:45.217Z,99.86
2018-03-08T05:40:45.194Z,99.39
2018-03-08T05:41:45.226Z,99.58
2018-03-08T05:42:45.166Z,99.86
2018-03-08T05:43:45.137Z,99.29
2018-03-08T05:44:45.112Z,99.99
2018-03-08T05:45:45.110Z,99.48
2018-03-08T05:46:45.097Z,99.29
2018-03-08T05:47:45.060Z,99.20
2018-03-08T05:48:45.042Z,99.15
2018-03-08T05:49:45.018Z,98.96
2018-03-08T05:50:45.024Z,99.15
2018-03-08T05:51:44.982Z,98.72
2018-03-08T05:52:45.001Z,98.68
2018-03-08T05:53:44.941Z,98.77
2018-03-08T05:54:44.934Z,98.30
2018-03-08T05:55:44.893Z,98.11
2018-03-08T05:56:44.979Z,97.83
2018-03-08T05:57:44.836Z,97.92
2018-03-08T05:58:44.820Z,98.02
2018-03-08T05:59:44.842Z,98.21
2018-03-08T06:00:44.794Z,98.21
2018-03-08T06:01:44.760Z,98.02
2018-03-08T06:02:44.753Z,98.30
2018-03-08T06:03:44.727Z,98.16
2018-03-08T06:04:44.700Z,98.58
2018-03-08T06:05:44.691Z,98.35
2018-03-08T06:06:44.660Z,98.16
2018-03-08T06:07:44.656Z,98.35
2018-03-08T06:08:44.627Z,98.54
2018-03-08T06:09:44.602Z,99.10
2018-03-08T06:10:44.579Z,99.20
2018-03-08T06:11:44.562Z,99.29
2018-03-08T06:12:44.534Z,99.58
2018-03-08T06:13:44.541Z,99.48
2018-03-08T06:14:44.494Z,99.99
2018-03-08T06:15:44.469Z,99.99
2018-03-08T06:16:44.459Z,99.99
2018-03-08T06:17:44.428Z,99.99
2018-03-08T06:18:44.415Z,99.99
2018-03-08T06:19:44.381Z,99.99
2018-03-08T06:20:44.363Z,99.99
2018-03-08T06:21:44.348Z,99.99
2018-03-08T06:22:44.328Z,99.99
2018-03-08T06:23:44.315Z,99.99
2018-03-08T06:24:44.286Z,99.99
2018-03-08T06:25:44.283Z,99.99
2018-03-08T06:26:44.242Z,99.99
2018-03-08T06:27:44.219Z,99.99
2018-03-08T06:28:44.226Z,99.99
2018-03-08T06:29:44.267Z,99.99
2018-03-08T06:30:44.158Z,99.99
2018-03-08T06:31:44.153Z,99.99
2018-03-08T06:32:44.149Z,99.99
2018-03-08T06:33:44.132Z,99.99
2018-03-08T06:34:44.075Z,99.99
2018-03-08T06:35:44.059Z,99.99
2018-03-08T06:36:44.033Z,99.99
2018-03-08T06:37:44.001Z,99.99
2018-03-08T06:38:44.004Z,99.99
2018-03-08T06:39:44.204Z,99.99
2018-03-08T06:40:43.966Z,99.99
2018-03-08T06:41:43.931Z,99.99
2018-03-08T06:42:43.902Z,99.99
2018-03-08T06:43:43.891Z,99.99
2018-03-08T06:44:43.876Z,99.99
2018-03-08T06:45:43.844Z,99.99
2018-03-08T06:46:43.841Z,99.99
2018-03-08T06:47:43.802Z,99.99
2018-03-08T06:48:43.786Z,99.99
2018-03-08T06:49:43.767Z,99.99
2018-03-08T06:50:43.738Z,99.99
2018-03-08T06:51:43.727Z,99.99
2018-03-08T06:52:43.694Z,99.99
2018-03-08T06:53:43.695Z,99.99
2018-03-08T06:54:43.657Z,99.99
2018-03-08T06:55:43.637Z,99.99
2018-03-08T06:56:43.628Z,99.99
2018-03-08T06:57:43.596Z,99.99
2018-03-08T06:58:43.596Z,99.99
2018-03-08T06:59:43.578Z,99.99
2018-03-08T07:00:43.564Z,99.99
2018-03-08T07:01:43.523Z,99.99
2018-03-08T07:02:43.491Z,99.99
2018-03-08T07:03:43.503Z,99.99
2018-03-08T07:04:43.446Z,99.99
2018-03-08T07:05:43.457Z,99.99
2018-03-08T07:06:43.420Z,99.99
2018-03-08T07:07:43.385Z,99.99
2018-03-08T07:08:43.369Z,99.99
2018-03-08T07:09:43.347Z,99.99
2018-03-08T07:10:43.331Z,99.99
2018-03-08T07:11:43.315Z,99.99
2018-03-08T07:12:43.340Z,99.99
2018-03-08T07:13:43.290Z,99.99
2018-03-08T07:14:43.255Z,99.99
2018-03-08T07:15:43.229Z,99.99
2018-03-08T07:16:43.200Z,99.99
2018-03-08T07:17:43.190Z,99.99
2018-03-08T07:18:43.164Z,99.99
2018-03-08T07:19:43.147Z,99.99
2018-03-08T07:20:43.124Z,99.99
2018-03-08T07:21:43.098Z,99.99
2018-03-08T07:22:43.088Z,99.99
2018-03-08T07:23:43.082Z,99.99
2018-03-08T07:24:43.044Z,99.99
2018-03-08T07:25:43.111Z,99.99
2018-03-08T07:26:43.006Z,99.99
2018-03-08T07:27:43.068Z,99.99
2018-03-08T07:28:42.984Z,99.99
2018-03-08T07:29:42.952Z,99.99
2018-03-08T07:30:42.928Z,99.99
2018-03-08T07:31:42.913Z,99.99
2018-03-08T07:32:42.885Z,99.99
2018-03-08T07:33:42.867Z,99.99
2018-03-08T07:34:42.846Z,99.99
2018-03-08T07:35:42.820Z,99.99
2018-03-08T07:36:42.811Z,99.99
2018-03-08T07:37:42.869Z,99.99
2018-03-08T07:38:42.756Z,99.99
2018-03-08T07:39:42.754Z,99.99
2018-03-08T07:40:42.716Z,99.99
2018-03-08T07:41:42.764Z,99.99
2018-03-08T07:42:42.675Z,99.99
2018-03-08T07:43:42.650Z,99.99
2018-03-08T07:44:42.640Z,99.99
2018-03-08T07:45:42.633Z,99.99
2018-03-08T07:46:42.605Z,99.99
2018-03-08T07:47:42.583Z,99.99
2018-03-08T07:48:42.550Z,99.99
2018-03-08T07:49:42.535Z,99.99
2018-03-08T07:50:42.547Z,99.99
2018-03-08T07:51:42.505Z,99.99
2018-03-08T07:52:42.497Z,99.99
2018-03-08T07:53:42.466Z,99.99
2018-03-08T07:54:42.439Z,99.99
2018-03-08T07:55:42.411Z,99.99
2018-03-08T07:56:42.401Z,99.99
2018-03-08T07:57:42.369Z,99.99
2018-03-08T07:58:42.357Z,99.99
2018-03-08T07:59:42.338Z,99.99
2018-03-08T08:00:42.375Z,99.99
2018-03-08T08:01:42.292Z,99.99
2018-03-08T08:02:42.269Z,99.99
2018-03-08T08:03:42.254Z,99.44
2018-03-08T08:04:42.236Z,99.26
2018-03-08T08:05:42.218Z,99.44
2018-03-08T08:06:42.212Z,99.54
2018-03-08T08:07:42.174Z,99.99
2018-03-08T08:08:42.187Z,98.92
2018-03-08T08:09:42.136Z,99.40
2018-03-08T08:10:42.114Z,98.73
2018-03-08T08:11:42.092Z,98.92
2018-03-08T08:12:42.140Z,98.64
2018-03-08T08:13:42.054Z,98.16
2018-03-08T08:14:42.051Z,96.93
2018-03-08T08:15:42.039Z,97.78
2018-03-08T08:16:42.002Z,97.12
2018-03-08T08:17:41.997Z,96.64
2018-03-08T08:18:41.960Z,96.55
2018-03-08T08:19:41.942Z,96.64
2018-03-08T08:20:41.919Z,95.70
2018-03-08T08:21:41.926Z,95.70
2018-03-08T08:22:41.938Z,95.51
2018-03-08T08:23:41.865Z,95.12
2018-03-08T08:24:41.842Z,95.79
2018-03-08T08:25:41.840Z,95.89
2018-03-08T08:26:41.820Z,96.17
2018-03-08T08:27:41.800Z,95.70
2018-03-08T08:28:41.770Z,96.26
2018-03-08T08:29:41.753Z,96.69
2018-03-08T08:30:41.732Z,95.41
2018-03-08T08:31:41.714Z,95.41
2018-03-08T08:32:41.698Z,95.31
2018-03-08T08:33:41.683Z,95.22
2018-03-08T08:34:41.664Z,95.41
2018-03-08T08:35:41.635Z,95.46
2018-03-08T08:36:41.615Z,95.55
2018-03-08T08:37:41.602Z,95.55
2018-03-08T08:38:41.587Z,95.36
2018-03-08T08:39:41.558Z,95.46
2018-03-08T08:40:41.542Z,96.12
2018-03-08T08:41:41.528Z,96.12
2018-03-08T08:42:41.509Z,95.46
2018-03-08T08:43:41.496Z,94.32
2018-03-08T08:44:41.476Z,94.51
2018-03-08T08:45:41.455Z,94.60
2018-03-08T08:46:41.486Z,94.13
2018-03-08T08:47:41.426Z,94.23
2018-03-08T08:48:41.393Z,93.46
2018-03-08T08:49:41.381Z,93.65
2018-03-08T08:50:41.362Z,94.60
2018-03-08T08:51:41.343Z,93.84
2018-03-08T08:52:41.322Z,94.23
2018-03-08T08:53:41.302Z,93.94
2018-03-08T08:54:41.289Z,93.37
2018-03-08T08:55:41.274Z,93.84
2018-03-08T08:56:41.258Z,94.32
2018-03-08T08:57:41.244Z,94.23
2018-03-08T08:58:41.213Z,94.23
2018-03-08T08:59:41.203Z,94.79
2018-03-08T09:00:41.226Z,93.75
2018-03-08T09:01:41.175Z,93.08
2018-03-08T09:02:41.147Z,93.99
2018-03-08T09:03:41.127Z,92.99
2018-03-08T09:04:41.107Z,93.60
2018-03-08T09:05:41.085Z,93.23
2018-03-08T09:06:41.069Z,92.27
2018-03-08T09:07:41.069Z,92.75
2018-03-08T09:08:41.091Z,91.80
2018-03-08T09:09:41.024Z,91.89
2018-03-08T09:10:41.046Z,91.80
2018-03-08T09:11:40.988Z,92.46
2018-03-08T09:12:40.964Z,91.99
2018-03-08T09:13:40.951Z,92.08
2018-03-08T09:14:40.942Z,91.42
2018-03-08T09:15:40.912Z,92.56
2018-03-08T09:16:40.900Z,91.61
2018-03-08T09:17:40.878Z,91.42
2018-03-08T09:18:40.889Z,90.56
2018-03-08T09:19:40.861Z,91.61
2018-03-08T09:20:40.871Z,90.56
2018-03-08T09:21:40.820Z,91.13
2018-03-08T09:22:40.797Z,91.04
2018-03-08T09:23:40.781Z,90.85
2018-03-08T09:24:40.762Z,91.61
2018-03-08T09:25:40.771Z,91.13
2018-03-08T09:26:40.735Z,90.99
2018-03-08T09:27:40.736Z,91.61
2018-03-08T09:28:40.718Z,91.08
2018-03-08T09:29:40.700Z,89.75
2018-03-08T09:30:40.660Z,90.42
2018-03-08T09:31:40.641Z,90.23
2018-03-08T09:32:40.628Z,90.04
2018-03-08T09:33:40.625Z,89.09
2018-03-08T09:34:40.596Z,89.75
2018-03-08T09:35:40.571Z,88.13
2018-03-08T09:36:40.576Z,88.42
2018-03-08T09:37:40.580Z,87.57
2018-03-08T09:38:40.526Z,87.57
2018-03-08T09:39:40.508Z,88.23
2018-03-08T09:40:40.498Z,88.23
2018-03-08T09:41:40.473Z,88.23
2018-03-08T09:42:40.466Z,88.90
2018-03-08T09:43:40.454Z,88.80
2018-03-08T09:44:40.428Z,89.00
2018-03-08T09:45:40.412Z,89.00
2018-03-08T09:46:40.396Z,87.57
2018-03-08T09:47:40.382Z,87.85
2018-03-08T09:48:40.367Z,87.76
2018-03-08T09:49:40.345Z,87.76
2018-03-08T09:50:40.338Z,87.47
2018-03-08T09:51:40.318Z,88.37
2018-03-08T09:52:40.311Z,88.46
2018-03-08T09:53:40.279Z,88.37
2018-03-08T09:54:40.280Z,87.32
2018-03-08T09:55:40.260Z,86.28
2018-03-08T09:56:40.234Z,86.76
2018-03-08T09:57:40.231Z,86.47
2018-03-08T09:58:40.205Z,86.85
2018-03-08T09:59:40.196Z,86.80
2018-03-08T10:00:40.176Z,86.22
2018-03-08T10:01:40.167Z,85.66
2018-03-08T10:02:40.148Z,85.47
2018-03-08T10:03:40.139Z,85.47
2018-03-08T10:04:40.117Z,85.37
2018-03-08T10:05:40.104Z,84.04
2018-03-08T10:06:40.085Z,84.99
2018-03-08T10:07:40.069Z,84.17
2018-03-08T10:08:40.066Z,83.28
2018-03-08T10:09:40.047Z,82.80
2018-03-08T10:10:40.034Z,83.22
2018-03-08T10:11:40.015Z,83.41
2018-03-08T10:12:40.008Z,82.51
2018-03-08T10:13:39.989Z,82.75
2018-03-08T10:14:39.975Z,83.41
2018-03-08T10:15:39.970Z,81.79
2018-03-08T10:16:39.961Z,82.42
2018-03-08T10:17:39.967Z,82.90
2018-03-08T10:18:39.932Z,82.51
2018-03-08T10:19:39.922Z,82.90
2018-03-08T10:20:39.902Z,83.65
2018-03-08T10:21:46.235Z,83.56
2018-03-08T10:22:39.868Z,83.75
2018-03-08T10:23:39.857Z,82.90
2018-03-08T10:24:39.841Z,84.42
2018-03-08T10:25:39.822Z,83.18
2018-03-08T10:26:39.819Z,82.84
2018-03-08T10:27:39.803Z,83.13
2018-03-08T10:28:39.794Z,83.03
2018-03-08T10:29:39.771Z,82.93
2018-03-08T10:30:39.789Z,80.94
2018-03-08T10:31:39.746Z,81.51
2018-03-08T10:32:39.745Z,81.98
2018-03-08T10:33:39.712Z,80.98
2018-03-08T10:34:39.699Z,79.40
2018-03-08T10:35:39.767Z,79.36
2018-03-08T10:36:39.677Z,79.78
2018-03-08T10:37:39.661Z,78.69
2018-03-08T10:38:39.651Z,79.97
2018-03-08T10:39:39.641Z,78.83
2018-03-08T10:41:46.592Z,78.88
2018-03-08T10:43:39.583Z,78.94
2018-03-08T10:44:39.580Z,79.89
2018-03-08T10:45:39.558Z,80.46
2018-03-08T10:46:39.550Z,80.52
2018-03-08T10:47:39.532Z,80.42
2018-03-08T10:48:39.544Z,82.14
2018-03-08T10:49:39.510Z,81.56
2018-03-08T10:50:39.501Z,82.32
2018-03-08T10:51:39.477Z,82.14
2018-03-08T10:52:39.471Z,82.90
2018-03-08T10:53:39.463Z,82.90
2018-03-08T10:54:39.449Z,83.13
2018-03-08T10:55:39.440Z,82.75
2018-03-08T10:56:39.414Z,81.32
2018-03-08T10:57:39.411Z,81.60
2018-03-08T10:58:39.404Z,80.46
2018-03-08T10:59:39.407Z,80.52
2018-03-08T11:00:39.356Z,81.51
2018-03-08T11:01:39.344Z,81.98
2018-03-08T11:02:39.334Z,82.37
2018-03-08T11:03:39.308Z,83.80
2018-03-08T11:04:39.302Z,81.79
2018-03-08T11:05:39.280Z,80.75
2018-03-08T11:06:39.283Z,81.79
2018-03-08T11:07:39.260Z,80.27
2018-03-08T11:08:39.257Z,78.94
2018-03-08T11:09:39.228Z,82.08
2018-03-08T11:10:39.230Z,80.75
2018-03-08T11:11:39.196Z,80.08
2018-03-08T11:12:39.180Z,79.60
2018-03-08T11:13:39.178Z,80.65
2018-03-08T11:14:39.161Z,80.84
2018-03-08T11:15:39.142Z,79.89
2018-03-08T11:16:39.125Z,79.32
2018-03-08T11:17:39.105Z,79.13
2018-03-08T11:18:39.102Z,78.69
2018-03-08T11:19:39.084Z,78.83
2018-03-08T11:20:39.071Z,78.30
2018-03-08T11:21:39.055Z,77.19
2018-03-08T11:22:39.062Z,74.96
2018-03-08T11:23:39.104Z,73.72
2018-03-08T11:24:39.022Z,75.20
2018-03-08T11:25:39.001Z,75.30
2018-03-08T11:26:38.986Z,76.54
2018-03-08T11:27:38.978Z,75.30
2018-03-08T11:28:38.978Z,75.30
2018-03-08T11:29:38.949Z,76.16
2018-03-08T11:30:38.943Z,75.96
2018-03-08T11:31:38.930Z,75.72
2018-03-08T11:32:38.916Z,76.57
2018-03-08T11:33:38.912Z,75.03
2018-03-08T11:34:38.890Z,72.30
2018-03-08T11:35:38.880Z,70.04
2018-03-08T11:36:38.861Z,69.21
2018-03-08T11:37:38.848Z,67.40
2018-03-08T11:38:38.861Z,67.43
2018-03-08T11:39:38.841Z,68.19
2018-03-08T11:40:38.829Z,70.39
2018-03-08T11:41:38.816Z,69.21
2018-03-08T11:42:38.806Z,69.97
2018-03-08T11:43:38.810Z,70.03
2018-03-08T11:44:38.794Z,70.51
2018-03-08T11:45:38.803Z,70.86
2018-03-08T11:46:38.768Z,71.91
2018-03-08T11:47:38.765Z,71.43
2018-03-08T11:48:38.755Z,70.76
2018-03-08T11:49:38.750Z,71.77
2018-03-08T11:50:38.736Z,72.34
2018-03-08T11:51:38.727Z,72.53
2018-03-08T11:52:38.711Z,71.81
2018-03-08T11:53:38.708Z,71.52
2018-03-08T11:54:38.734Z,71.33
2018-03-08T11:55:38.695Z,70.76
2018-03-08T11:56:38.679Z,71.72
2018-03-08T11:57:38.659Z,72.00
2018-03-08T11:58:38.647Z,72.03
2018-03-08T11:59:38.638Z,70.83
2018-03-08T12:00:38.624Z,68.92
2018-03-08T12:01:38.615Z,68.12
2018-03-08T12:02:38.611Z,69.49
2018-03-08T12:03:38.599Z,69.49
2018-03-08T12:04:38.580Z,67.49
2018-03-08T12:05:38.583Z,68.73
2018-03-08T12:06:38.567Z,68.35
2018-03-08T12:07:38.554Z,67.46
2018-03-08T12:08:38.548Z,68.16
2018-03-08T12:09:38.544Z,68.26
2018-03-08T12:10:38.522Z,67.87
2018-03-08T12:11:38.519Z,67.43
2018-03-08T12:12:38.510Z,68.90
2018-03-08T12:13:38.510Z,65.93
2018-03-08T12:14:38.487Z,65.04
2018-03-08T12:15:38.484Z,68.23
2018-03-08T12:16:38.574Z,68.07
2018-03-08T12:17:38.477Z,65.07
2018-03-08T12:18:38.465Z,63.76
2018-03-08T12:19:38.455Z,65.10
2018-03-08T12:20:38.458Z,68.26
2018-03-08T12:21:38.430Z,68.00
2018-03-08T12:22:38.423Z,66.92
2018-03-08T12:23:38.436Z,67.30
2018-03-08T12:24:38.408Z,66.72
2018-03-08T12:25:38.417Z,67.27
2018-03-08T12:26:38.387Z,68.88
2018-03-08T12:27:38.387Z,69.17
2018-03-08T12:28:38.373Z,68.92
2018-03-08T12:29:38.372Z,69.15
2018-03-08T12:30:38.352Z,67.11
2018-03-08T12:31:38.350Z,68.82
2018-03-08T12:32:38.377Z,69.11
2018-03-08T12:33:38.325Z,67.97
2018-03-08T12:34:38.313Z,67.21
2018-03-08T12:35:38.303Z,66.63
2018-03-08T12:36:38.299Z,68.35
2018-03-08T12:37:38.284Z,68.73
2018-03-08T12:38:38.277Z,69.21
2018-03-08T12:39:38.307Z,66.92
2018-03-08T12:40:38.268Z,68.35
2018-03-08T12:41:38.256Z,68.16
2018-03-08T12:42:38.245Z,67.87
2018-03-08T12:43:38.242Z,66.82
2018-03-08T12:44:38.236Z,66.63
2018-03-08T12:45:38.213Z,67.11
2018-03-08T12:46:38.200Z,67.87
2018-03-08T12:47:38.194Z,66.82
2018-03-08T12:48:38.188Z,66.50
2018-03-08T12:49:38.191Z,66.88
2018-03-08T12:50:38.155Z,67.07
2018-03-08T12:51:38.153Z,67.99
2018-03-08T12:52:38.229Z,69.14
2018-03-08T12:53:38.133Z,70.09
2018-03-08T12:54:38.114Z,69.43